sensor_id;sensor_type;location;lat;lon;timestamp;pressure;altitude;pressure_sealevel;temperature;humidity
66385;BME280;53426;55.872;37.462;2024-03-07T00:00:12;100076.97;;;-4.18;46.75
66385;BME280;53426;55.872;37.462;2024-03-07T00:03:01;100077.06;;;-4.24;46.78
66385;BME280;53426;55.872;37.462;2024-03-07T00:05:27;100087.53;;;-4.32;46.68
66385;BME280;53426;55.872;37.462;2024-03-07T00:07:54;100080.66;;;-4.33;46.65
66385;BME280;53426;55.872;37.462;2024-03-07T00:10:21;100078.06;;;-4.31;46.43
66385;BME280;53426;55.872;37.462;2024-03-07T00:12:48;100062.66;;;-4.40;46.27
66385;BME280;53426;55.872;37.462;2024-03-07T00:15:15;100072.03;;;-4.33;46.46
66385;BME280;53426;55.872;37.462;2024-03-07T00:17:41;100079.81;;;-4.36;46.63
66385;BME280;53426;55.872;37.462;2024-03-07T00:20:08;100061.03;;;-4.46;46.84
66385;BME280;53426;55.872;37.462;2024-03-07T00:22:36;100076.44;;;-4.40;47.05
66385;BME280;53426;55.872;37.462;2024-03-07T00:25:09;100036.28;;;-4.62;47.02
66385;BME280;53426;55.872;37.462;2024-03-07T00:27:36;100065.28;;;-4.42;47.34
66385;BME280;53426;55.872;37.462;2024-03-07T00:30:06;100055.94;;;-4.50;46.95
66385;BME280;53426;55.872;37.462;2024-03-07T00:32:34;100043.25;;;-4.67;47.00
66385;BME280;53426;55.872;37.462;2024-03-07T00:35:06;100047.53;;;-4.65;47.63
66385;BME280;53426;55.872;37.462;2024-03-07T00:37:35;100047.56;;;-4.68;48.05
66385;BME280;53426;55.872;37.462;2024-03-07T00:40:02;100057.81;;;-4.60;48.25
66385;BME280;53426;55.872;37.462;2024-03-07T00:42:31;100063.78;;;-4.58;47.78
66385;BME280;53426;55.872;37.462;2024-03-07T00:44:58;100022.84;;;-4.85;47.74
66385;BME280;53426;55.872;37.462;2024-03-07T00:47:27;100024.53;;;-4.81;47.53
66385;BME280;53426;55.872;37.462;2024-03-07T00:49:55;100027.06;;;-4.77;47.43
66385;BME280;53426;55.872;37.462;2024-03-07T00:52:21;100044.19;;;-4.71;46.96
66385;BME280;53426;55.872;37.462;2024-03-07T00:54:47;100051.00;;;-4.67;47.65
66385;BME280;53426;55.872;37.462;2024-03-07T00:57:13;100049.31;;;-4.68;47.70
66385;BME280;53426;55.872;37.462;2024-03-07T00:59:39;100045.03;;;-4.71;47.97
66385;BME280;53426;55.872;37.462;2024-03-07T01:02:05;100031.34;;;-4.76;47.91
66385;BME280;53426;55.872;37.462;2024-03-07T01:04:33;100049.28;;;-4.65;47.49
66385;BME280;53426;55.872;37.462;2024-03-07T01:07:00;100037.41;;;-4.80;48.14
66385;BME280;53426;55.872;37.462;2024-03-07T01:09:26;99990.34;;;-4.97;47.98
66385;BME280;53426;55.872;37.462;2024-03-07T01:11:54;100014.22;;;-4.81;47.76
66385;BME280;53426;55.872;37.462;2024-03-07T01:14:21;100017.59;;;-4.79;47.70
66385;BME280;53426;55.872;37.462;2024-03-07T01:16:50;100001.41;;;-4.90;47.75
66385;BME280;53426;55.872;37.462;2024-03-07T01:19:18;100032.13;;;-4.69;47.49
66385;BME280;53426;55.872;37.462;2024-03-07T01:21:44;100046.72;;;-4.68;47.58
66385;BME280;53426;55.872;37.462;2024-03-07T01:24:10;100038.16;;;-4.72;47.70
66385;BME280;53426;55.872;37.462;2024-03-07T01:26:38;100029.72;;;-4.84;47.66
66385;BME280;53426;55.872;37.462;2024-03-07T01:29:04;100017.81;;;-4.91;48.12
66385;BME280;53426;55.872;37.462;2024-03-07T01:31:32;100034.94;;;-4.86;48.13
66385;BME280;53426;55.872;37.462;2024-03-07T01:33:58;100029.81;;;-4.90;48.17
66385;BME280;53426;55.872;37.462;2024-03-07T01:36:24;100027.28;;;-4.95;48.04
66385;BME280;53426;55.872;37.462;2024-03-07T01:38:50;100009.44;;;-5.12;48.59
66385;BME280;53426;55.872;37.462;2024-03-07T01:41:17;100029.09;;;-5.00;48.47
66385;BME280;53426;55.872;37.462;2024-03-07T01:43:43;99964.25;;;-5.41;48.34
66385;BME280;53426;55.872;37.462;2024-03-07T01:46:10;99984.06;;;-5.42;48.83
66385;BME280;53426;55.872;37.462;2024-03-07T01:48:37;100032.75;;;-5.16;49.46
66385;BME280;53426;55.872;37.462;2024-03-07T01:51:04;100027.72;;;-5.25;49.23
66385;BME280;53426;55.872;37.462;2024-03-07T01:53:30;100028.63;;;-5.29;49.85
66385;BME280;53426;55.872;37.462;2024-03-07T01:55:57;100016.84;;;-5.52;50.11
66385;BME280;53426;55.872;37.462;2024-03-07T01:58:24;100020.31;;;-5.53;50.96
66385;BME280;53426;55.872;37.462;2024-03-07T02:00:50;99964.84;;;-5.88;50.85
66385;BME280;53426;55.872;37.462;2024-03-07T02:03:17;100027.25;;;-5.59;51.43
66385;BME280;53426;55.872;37.462;2024-03-07T02:05:43;100028.16;;;-5.63;50.85
66385;BME280;53426;55.872;37.462;2024-03-07T02:08:09;100029.91;;;-5.67;51.17
66385;BME280;53426;55.872;37.462;2024-03-07T02:10:35;99978.69;;;-5.99;51.02
66385;BME280;53426;55.872;37.462;2024-03-07T02:13:02;99979.56;;;-5.97;50.87
66385;BME280;53426;55.872;37.462;2024-03-07T02:15:29;100023.13;;;-5.74;51.09
66385;BME280;53426;55.872;37.462;2024-03-07T02:17:55;100017.97;;;-5.75;50.90
66385;BME280;53426;55.872;37.462;2024-03-07T02:20:23;100004.25;;;-5.79;51.44
66385;BME280;53426;55.872;37.462;2024-03-07T02:22:50;100013.66;;;-5.75;50.96
66385;BME280;53426;55.872;37.462;2024-03-07T02:25:16;99926.63;;;-6.28;51.35
66385;BME280;53426;55.872;37.462;2024-03-07T02:27:43;100012.00;;;-5.80;51.59
66385;BME280;53426;55.872;37.462;2024-03-07T02:30:11;100024.94;;;-5.85;51.09
66385;BME280;53426;55.872;37.462;2024-03-07T02:32:38;99995.94;;;-6.02;51.38
66385;BME280;53426;55.872;37.462;2024-03-07T02:35:05;99983.97;;;-6.08;51.80
66385;BME280;53426;55.872;37.462;2024-03-07T02:37:32;100013.03;;;-5.94;51.95
66385;BME280;53426;55.872;37.462;2024-03-07T02:40:01;99984.81;;;-6.07;52.15
66385;BME280;53426;55.872;37.462;2024-03-07T02:42:30;99996.00;;;-6.07;51.90
66385;BME280;53426;55.872;37.462;2024-03-07T02:44:56;100011.41;;;-6.02;51.76
66385;BME280;53426;55.872;37.462;2024-03-07T02:47:23;99944.69;;;-6.32;52.03
66385;BME280;53426;55.872;37.462;2024-03-07T02:49:50;99996.78;;;-6.00;51.65
66385;BME280;53426;55.872;37.462;2024-03-07T02:52:18;100003.59;;;-5.95;51.74
66385;BME280;53426;55.872;37.462;2024-03-07T02:54:44;100006.19;;;-5.95;51.95
66385;BME280;53426;55.872;37.462;2024-03-07T02:57:12;99962.59;;;-6.19;51.96
66385;BME280;53426;55.872;37.462;2024-03-07T02:59:37;100007.84;;;-5.90;51.97
66385;BME280;53426;55.872;37.462;2024-03-07T03:02:04;100001.84;;;-5.93;51.57
66385;BME280;53426;55.872;37.462;2024-03-07T03:04:31;100011.25;;;-5.88;51.50
66385;BME280;53426;55.872;37.462;2024-03-07T03:06:57;99967.75;;;-6.17;51.26
66385;BME280;53426;55.872;37.462;2024-03-07T03:09:23;99996.75;;;-5.97;51.00
66385;BME280;53426;55.872;37.462;2024-03-07T03:11:49;99996.75;;;-5.97;50.35
66385;BME280;53426;55.872;37.462;2024-03-07T03:14:15;99999.38;;;-6.00;50.87
66385;BME280;53426;55.872;37.462;2024-03-07T03:16:42;99958.41;;;-6.27;50.42
66385;BME280;53426;55.872;37.462;2024-03-07T03:19:10;99993.38;;;-6.05;50.81
66385;BME280;53426;55.872;37.462;2024-03-07T03:21:36;99947.25;;;-6.31;50.13
66385;BME280;53426;55.872;37.462;2024-03-07T03:24:03;99949.88;;;-6.37;51.05
66385;BME280;53426;55.872;37.462;2024-03-07T03:26:30;99958.31;;;-6.20;50.72
66385;BME280;53426;55.872;37.462;2024-03-07T03:28:57;99989.88;;;-6.00;50.27
66385;BME280;53426;55.872;37.462;2024-03-07T03:31:24;99989.88;;;-5.98;50.08
66385;BME280;53426;55.872;37.462;2024-03-07T03:33:50;99988.16;;;-5.98;50.06
66385;BME280;53426;55.872;37.462;2024-03-07T03:36:17;99994.16;;;-5.97;49.84
66385;BME280;53426;55.872;37.462;2024-03-07T03:38:45;99986.47;;;-6.02;49.31
66385;BME280;53426;55.872;37.462;2024-03-07T03:41:15;99919.13;;;-6.52;49.30
66385;BME280;53426;55.872;37.462;2024-03-07T03:43:43;99997.75;;;-6.13;49.22
66385;BME280;53426;55.872;37.462;2024-03-07T03:46:10;99973.84;;;-6.27;49.95
66385;BME280;53426;55.872;37.462;2024-03-07T03:48:38;99948.09;;;-6.30;49.78
66385;BME280;53426;55.872;37.462;2024-03-07T03:51:07;99987.41;;;-6.07;49.83
66385;BME280;53426;55.872;37.462;2024-03-07T03:53:34;99972.84;;;-6.14;49.65
66385;BME280;53426;55.872;37.462;2024-03-07T03:56:00;99987.41;;;-6.10;49.64
66385;BME280;53426;55.872;37.462;2024-03-07T03:58:26;99936.22;;;-6.44;49.96
66385;BME280;53426;55.872;37.462;2024-03-07T04:00:57;99981.34;;;-6.03;48.86
66385;BME280;53426;55.872;37.462;2024-03-07T04:03:24;99979.63;;;-6.03;49.41
66385;BME280;53426;55.872;37.462;2024-03-07T04:05:50;99908.75;;;-6.48;49.33
66385;BME280;53426;55.872;37.462;2024-03-07T04:08:35;99945.41;;;-6.20;48.88
66385;BME280;53426;55.872;37.462;2024-03-07T04:11:02;99925.84;;;-6.38;48.80
66385;BME280;53426;55.872;37.462;2024-03-07T04:13:29;99971.03;;;-6.03;48.79
66385;BME280;53426;55.872;37.462;2024-03-07T04:15:56;99974.44;;;-6.01;49.06
66385;BME280;53426;55.872;37.462;2024-03-07T04:18:22;99917.22;;;-6.33;49.00
66385;BME280;53426;55.872;37.462;2024-03-07T04:20:51;99953.03;;;-6.06;48.87
66385;BME280;53426;55.872;37.462;2024-03-07T04:23:18;99957.28;;;-6.02;49.70
66385;BME280;53426;55.872;37.462;2024-03-07T04:25:46;99948.63;;;-5.97;49.13
66385;BME280;53426;55.872;37.462;2024-03-07T04:28:12;99961.22;;;-5.74;48.53
66385;BME280;53426;55.872;37.462;2024-03-07T04:30:41;99966.31;;;-5.68;48.61
66385;BME280;53426;55.872;37.462;2024-03-07T04:33:08;99963.69;;;-5.63;48.57
66385;BME280;53426;55.872;37.462;2024-03-07T04:35:34;99958.44;;;-5.57;48.39
66385;BME280;53426;55.872;37.462;2024-03-07T04:38:00;99955.88;;;-5.57;48.07
66385;BME280;53426;55.872;37.462;2024-03-07T04:40:29;99935.25;;;-5.62;48.11
66385;BME280;53426;55.872;37.462;2024-03-07T04:42:55;99956.88;;;-5.04;48.00
66385;BME280;53426;55.872;37.462;2024-03-07T04:45:22;99939.84;;;-4.13;46.76
66385;BME280;53426;55.872;37.462;2024-03-07T04:47:50;99936.25;;;-3.20;44.12
66385;BME280;53426;55.872;37.462;2024-03-07T04:50:16;99941.75;;;-2.26;42.09
66385;BME280;53426;55.872;37.462;2024-03-07T04:52:43;99928.06;;;-1.37;40.42
66385;BME280;53426;55.872;37.462;2024-03-07T04:55:09;99920.63;;;-0.66;38.55
66385;BME280;53426;55.872;37.462;2024-03-07T04:57:37;99947.91;;;0.23;37.29
66385;BME280;53426;55.872;37.462;2024-03-07T05:00:13;99947.81;;;0.96;36.04
66385;BME280;53426;55.872;37.462;2024-03-07T05:02:41;99945.75;;;1.48;34.76
66385;BME280;53426;55.872;37.462;2024-03-07T05:05:07;99938.59;;;1.95;33.37
66385;BME280;53426;55.872;37.462;2024-03-07T05:07:33;99934.69;;;2.44;32.33
66385;BME280;53426;55.872;37.462;2024-03-07T05:10:06;99910.25;;;2.82;31.72
66385;BME280;53426;55.872;37.462;2024-03-07T05:12:33;99909.19;;;3.05;30.91
66385;BME280;53426;55.872;37.462;2024-03-07T05:14:59;99913.16;;;3.31;30.62
66385;BME280;53426;55.872;37.462;2024-03-07T05:17:25;99916.53;;;3.69;30.03
66385;BME280;53426;55.872;37.462;2024-03-07T05:19:54;99880.28;;;4.11;29.66
66385;BME280;53426;55.872;37.462;2024-03-07T05:22:45;99925.09;;;5.04;28.31
66385;BME280;53426;55.872;37.462;2024-03-07T05:25:31;99926.47;;;5.57;28.02
66385;BME280;53426;55.872;37.462;2024-03-07T05:27:58;99869.00;;;5.96;26.92
66385;BME280;53426;55.872;37.462;2024-03-07T05:30:28;99830.53;;;6.09;26.17
66385;BME280;53426;55.872;37.462;2024-03-07T05:32:58;99731.06;;;5.73;25.59
66385;BME280;53426;55.872;37.462;2024-03-07T05:35:32;99913.38;;;7.14;25.28
66385;BME280;53426;55.872;37.462;2024-03-07T05:40:56;99918.19;;;7.61;24.10
66385;BME280;53426;55.872;37.462;2024-03-07T05:43:26;99905.66;;;8.17;23.59
66385;BME280;53426;55.872;37.462;2024-03-07T05:45:53;99884.75;;;8.01;23.89
66385;BME280;53426;55.872;37.462;2024-03-07T05:48:24;99855.00;;;7.99;23.35
66385;BME280;53426;55.872;37.462;2024-03-07T05:55:07;99897.66;;;9.29;21.76
66385;BME280;53426;55.872;37.462;2024-03-07T05:57:34;99749.97;;;8.55;21.99
66385;BME280;53426;55.872;37.462;2024-03-07T06:00:01;99911.38;;;9.34;22.23
66385;BME280;53426;55.872;37.462;2024-03-07T06:02:39;99876.91;;;9.59;21.92
66385;BME280;53426;55.872;37.462;2024-03-07T06:05:07;99907.47;;;10.09;21.11
66385;BME280;53426;55.872;37.462;2024-03-07T06:08:24;99794.72;;;9.62;20.84
66385;BME280;53426;55.872;37.462;2024-03-07T06:10:52;99871.16;;;10.12;21.42
66385;BME280;53426;55.872;37.462;2024-03-07T06:13:39;99868.38;;;10.02;21.14
66385;BME280;53426;55.872;37.462;2024-03-07T06:19:30;99899.19;;;10.03;21.00
66385;BME280;53426;55.872;37.462;2024-03-07T06:21:56;99740.88;;;9.17;21.78
66385;BME280;53426;55.872;37.462;2024-03-07T06:24:22;99891.81;;;9.95;21.57
66385;BME280;53426;55.872;37.462;2024-03-07T06:26:48;99891.66;;;9.86;21.68
66385;BME280;53426;55.872;37.462;2024-03-07T06:29:25;99848.69;;;9.60;22.09
66385;BME280;53426;55.872;37.462;2024-03-07T06:31:54;99873.19;;;9.97;21.59
66385;BME280;53426;55.872;37.462;2024-03-07T06:34:21;99843.41;;;10.84;20.81
66385;BME280;53426;55.872;37.462;2024-03-07T06:36:47;99881.03;;;11.53;19.88
66385;BME280;53426;55.872;37.462;2024-03-07T06:39:32;99822.41;;;11.03;20.45
66385;BME280;53426;55.872;37.462;2024-03-07T06:41:58;99835.56;;;10.94;20.81
66385;BME280;53426;55.872;37.462;2024-03-07T06:44:24;99834.25;;;10.77;20.86
66385;BME280;53426;55.872;37.462;2024-03-07T06:46:51;99866.03;;;10.66;20.66
66385;BME280;53426;55.872;37.462;2024-03-07T06:49:17;99852.63;;;10.00;22.14
66385;BME280;53426;55.872;37.462;2024-03-07T06:51:43;99828.97;;;10.66;21.27
66385;BME280;53426;55.872;37.462;2024-03-07T06:54:09;99813.53;;;10.82;21.00
66385;BME280;53426;55.872;37.462;2024-03-07T06:56:39;99856.03;;;12.29;19.83
66385;BME280;53426;55.872;37.462;2024-03-07T06:59:09;99856.59;;;12.53;19.81
66385;BME280;53426;55.872;37.462;2024-03-07T07:01:35;99827.00;;;13.17;18.83
66385;BME280;53426;55.872;37.462;2024-03-07T07:04:19;99850.72;;;14.14;18.38
66385;BME280;53426;55.872;37.462;2024-03-07T07:06:45;99827.44;;;14.26;17.57
66385;BME280;53426;55.872;37.462;2024-03-07T07:09:14;99766.72;;;13.93;17.83
66385;BME280;53426;55.872;37.462;2024-03-07T07:11:44;99805.09;;;14.74;17.25
66385;BME280;53426;55.872;37.462;2024-03-07T07:14:11;99861.13;;;14.64;17.39
66385;BME280;53426;55.872;37.462;2024-03-07T07:16:37;99806.72;;;14.57;17.68
66385;BME280;53426;55.872;37.462;2024-03-07T07:19:10;99794.03;;;14.96;17.59
66385;BME280;53426;55.872;37.462;2024-03-07T07:21:36;99844.47;;;15.07;17.51
66385;BME280;53426;55.872;37.462;2024-03-07T07:24:02;99849.94;;;15.05;17.20
66385;BME280;53426;55.872;37.462;2024-03-07T07:26:48;99835.38;;;15.27;18.02
66385;BME280;53426;55.872;37.462;2024-03-07T07:29:14;99740.91;;;14.67;17.18
66385;BME280;53426;55.872;37.462;2024-03-07T07:31:41;99723.63;;;15.24;16.84
66385;BME280;53426;55.872;37.462;2024-03-07T07:34:16;99752.25;;;15.75;16.50
66385;BME280;53426;55.872;37.462;2024-03-07T07:37:08;99828.16;;;16.84;16.90
66385;BME280;53426;55.872;37.462;2024-03-07T07:42:27;99666.88;;;15.40;16.13
66385;BME280;53426;55.872;37.462;2024-03-07T07:46:03;99722.50;;;15.96;15.95
66385;BME280;53426;55.872;37.462;2024-03-07T07:48:29;99806.06;;;15.88;16.07
66385;BME280;53426;55.872;37.462;2024-03-07T07:50:55;99820.38;;;16.05;16.37
66385;BME280;53426;55.872;37.462;2024-03-07T08:00:38;99667.97;;;15.29;16.83
66385;BME280;53426;55.872;37.462;2024-03-07T08:03:07;99803.84;;;16.36;16.28
66385;BME280;53426;55.872;37.462;2024-03-07T08:05:34;99769.97;;;16.36;16.21
66385;BME280;53426;55.872;37.462;2024-03-07T08:08:16;99721.56;;;15.79;16.56
66385;BME280;53426;55.872;37.462;2024-03-07T08:10:46;99780.81;;;16.43;16.16
66385;BME280;53426;55.872;37.462;2024-03-07T08:13:13;99675.88;;;16.24;16.20
66385;BME280;53426;55.872;37.462;2024-03-07T08:15:39;99768.78;;;16.39;16.49
66385;BME280;53426;55.872;37.462;2024-03-07T08:18:08;99810.09;;;16.86;16.54
66385;BME280;53426;55.872;37.462;2024-03-07T08:20:35;99769.41;;;17.49;15.69
66385;BME280;53426;55.872;37.462;2024-03-07T08:26:58;99626.84;;;17.71;15.31
66385;BME280;53426;55.872;37.462;2024-03-07T08:32:03;99779.19;;;18.29;15.73
66385;BME280;53426;55.872;37.462;2024-03-07T08:34:55;99780.53;;;19.34;14.97
66385;BME280;53426;55.872;37.462;2024-03-07T08:37:21;99636.09;;;18.69;14.81
66385;BME280;53426;55.872;37.462;2024-03-07T08:40:16;99766.16;;;20.39;14.58
66385;BME280;53426;55.872;37.462;2024-03-07T08:42:52;99606.22;;;19.10;14.15
66385;BME280;53426;55.872;37.462;2024-03-07T08:45:20;99695.28;;;20.03;14.20
66385;BME280;53426;55.872;37.462;2024-03-07T08:48:14;99760.84;;;20.61;14.39
66385;BME280;53426;55.872;37.462;2024-03-07T08:50:42;99771.97;;;19.76;14.30
66385;BME280;53426;55.872;37.462;2024-03-07T08:53:09;99682.28;;;19.62;14.24
66385;BME280;53426;55.872;37.462;2024-03-07T08:55:35;99733.59;;;20.34;14.19
66385;BME280;53426;55.872;37.462;2024-03-07T08:58:02;99735.53;;;20.55;13.75
66385;BME280;53426;55.872;37.462;2024-03-07T09:00:28;99762.44;;;20.55;14.08
66385;BME280;53426;55.872;37.462;2024-03-07T09:02:56;99757.88;;;20.12;13.87
66385;BME280;53426;55.872;37.462;2024-03-07T09:08:22;99761.09;;;20.22;13.99
66385;BME280;53426;55.872;37.462;2024-03-07T09:10:48;99756.38;;;19.94;14.23
66385;BME280;53426;55.872;37.462;2024-03-07T09:13:14;99733.88;;;19.58;14.36
66385;BME280;53426;55.872;37.462;2024-03-07T09:15:41;99725.44;;;19.15;14.47
66385;BME280;53426;55.872;37.462;2024-03-07T09:18:07;99708.91;;;18.58;14.88
66385;BME280;53426;55.872;37.462;2024-03-07T09:28:46;99681.03;;;17.73;15.28
66385;BME280;53426;55.872;37.462;2024-03-07T09:31:18;99736.25;;;17.58;15.92
66385;BME280;53426;55.872;37.462;2024-03-07T09:33:56;99565.91;;;16.78;15.99
66385;BME280;53426;55.872;37.462;2024-03-07T09:36:27;99601.38;;;17.59;15.53
66385;BME280;53426;55.872;37.462;2024-03-07T09:38:53;99687.53;;;17.87;15.85
66385;BME280;53426;55.872;37.462;2024-03-07T09:41:22;99672.69;;;17.68;16.13
66385;BME280;53426;55.872;37.462;2024-03-07T09:43:54;99686.38;;;18.28;15.53
66385;BME280;53426;55.872;37.462;2024-03-07T09:46:21;99754.81;;;18.08;16.00
66385;BME280;53426;55.872;37.462;2024-03-07T09:48:51;99712.00;;;18.31;15.77
66385;BME280;53426;55.872;37.462;2024-03-07T09:51:20;99676.03;;;17.70;16.34
66385;BME280;53426;55.872;37.462;2024-03-07T09:54:03;99746.16;;;18.37;16.48
66385;BME280;53426;55.872;37.462;2024-03-07T09:57:23;99529.19;;;17.35;15.79
66385;BME280;53426;55.872;37.462;2024-03-07T09:59:51;99685.91;;;18.64;15.53
66385;BME280;53426;55.872;37.462;2024-03-07T10:02:21;99683.28;;;18.48;15.89
66385;BME280;53426;55.872;37.462;2024-03-07T10:04:51;99635.41;;;17.50;16.37
66385;BME280;53426;55.872;37.462;2024-03-07T10:07:18;99645.31;;;17.18;16.33
66385;BME280;53426;55.872;37.462;2024-03-07T10:09:45;99661.84;;;17.13;16.92
66385;BME280;53426;55.872;37.462;2024-03-07T10:12:16;99510.19;;;15.92;16.74
66385;BME280;53426;55.872;37.462;2024-03-07T10:14:50;99607.09;;;17.64;16.35
66385;BME280;53426;55.872;37.462;2024-03-07T10:17:26;99723.34;;;18.49;16.65
66385;BME280;53426;55.872;37.462;2024-03-07T10:19:53;99724.84;;;18.83;15.96
66385;BME280;53426;55.872;37.462;2024-03-07T10:22:20;99647.72;;;18.54;15.61
66385;BME280;53426;55.872;37.462;2024-03-07T10:24:50;99729.69;;;18.87;16.04
66385;BME280;53426;55.872;37.462;2024-03-07T10:27:20;99630.47;;;18.79;15.45
66385;BME280;53426;55.872;37.462;2024-03-07T10:29:52;99604.56;;;18.10;15.80
66385;BME280;53426;55.872;37.462;2024-03-07T10:32:22;99528.34;;;18.35;15.56
66385;BME280;53426;55.872;37.462;2024-03-07T10:34:52;99691.19;;;19.78;14.92
66385;BME280;53426;55.872;37.462;2024-03-07T10:37:18;99533.88;;;18.64;15.36
66385;BME280;53426;55.872;37.462;2024-03-07T10:39:47;99525.88;;;18.56;15.44
66385;BME280;53426;55.872;37.462;2024-03-07T10:42:16;99611.03;;;18.77;15.32
66385;BME280;53426;55.872;37.462;2024-03-07T10:44:48;99609.09;;;18.40;15.52
66385;BME280;53426;55.872;37.462;2024-03-07T10:47:17;99619.38;;;17.89;15.51
66385;BME280;53426;55.872;37.462;2024-03-07T11:02:44;99668.44;;;19.36;16.13
66385;BME280;53426;55.872;37.462;2024-03-07T11:05:13;99655.47;;;19.02;15.54
66385;BME280;53426;55.872;37.462;2024-03-07T11:13:42;99528.63;;;16.52;17.08
66385;BME280;53426;55.872;37.462;2024-03-07T11:16:11;99495.53;;;16.45;16.83
66385;BME280;53426;55.872;37.462;2024-03-07T11:18:39;99645.97;;;17.03;16.96
66385;BME280;53426;55.872;37.462;2024-03-07T11:21:07;99662.00;;;16.87;17.37
66385;BME280;53426;55.872;37.462;2024-03-07T11:23:53;99648.84;;;17.02;17.24
66385;BME280;53426;55.872;37.462;2024-03-07T11:26:23;99639.25;;;16.75;17.59
66385;BME280;53426;55.872;37.462;2024-03-07T11:28:49;99513.84;;;15.91;17.84
66385;BME280;53426;55.872;37.462;2024-03-07T11:31:26;99653.91;;;16.47;17.64
66385;BME280;53426;55.872;37.462;2024-03-07T11:34:13;99643.47;;;16.27;18.10
66385;BME280;53426;55.872;37.462;2024-03-07T11:36:54;99601.06;;;15.23;18.41
66385;BME280;53426;55.872;37.462;2024-03-07T11:39:41;99634.00;;;15.31;18.68
66385;BME280;53426;55.872;37.462;2024-03-07T11:42:30;99610.31;;;14.04;19.36
66385;BME280;53426;55.872;37.462;2024-03-07T11:45:00;99617.53;;;12.91;20.45
66385;BME280;53426;55.872;37.462;2024-03-07T11:47:36;99567.00;;;11.15;22.32
66385;BME280;53426;55.872;37.462;2024-03-07T11:50:05;99640.47;;;10.40;22.89
66385;BME280;53426;55.872;37.462;2024-03-07T11:53:21;99635.38;;;9.27;24.33
66385;BME280;53426;55.872;37.462;2024-03-07T11:55:47;99651.78;;;8.73;25.69
66385;BME280;53426;55.872;37.462;2024-03-07T12:01:55;99498.38;;;7.24;26.29
66385;BME280;53426;55.872;37.462;2024-03-07T12:04:34;99381.78;;;6.37;26.58
66385;BME280;53426;55.872;37.462;2024-03-07T12:07:00;99627.28;;;7.51;27.81
66385;BME280;53426;55.872;37.462;2024-03-07T12:09:59;99623.81;;;7.63;27.37
66385;BME280;53426;55.872;37.462;2024-03-07T12:15:31;99485.69;;;6.29;28.40
66385;BME280;53426;55.872;37.462;2024-03-07T12:18:05;99500.88;;;5.99;28.00
66385;BME280;53426;55.872;37.462;2024-03-07T12:20:37;99616.53;;;6.65;28.55
66385;BME280;53426;55.872;37.462;2024-03-07T12:23:29;99619.88;;;6.67;27.62
66385;BME280;53426;55.872;37.462;2024-03-07T12:44:42;99500.19;;;5.42;29.20
66385;BME280;53426;55.872;37.462;2024-03-07T12:53:35;99601.16;;;6.06;28.67
66385;BME280;53426;55.872;37.462;2024-03-07T13:01:47;99445.81;;;4.89;29.75
66385;BME280;53426;55.872;37.462;2024-03-07T13:07:15;99442.75;;;4.68;29.88
66385;BME280;53426;55.872;37.462;2024-03-07T13:09:43;99576.63;;;5.37;30.04
66385;BME280;53426;55.872;37.462;2024-03-07T13:21:28;99549.81;;;5.04;30.03
66385;BME280;53426;55.872;37.462;2024-03-07T13:24:09;99434.56;;;4.58;30.23
66385;BME280;53426;55.872;37.462;2024-03-07T13:26:35;99459.13;;;4.72;30.48
66385;BME280;53426;55.872;37.462;2024-03-07T13:29:02;99587.13;;;5.37;30.83
66385;BME280;53426;55.872;37.462;2024-03-07T13:31:31;99512.03;;;4.92;30.27
66385;BME280;53426;55.872;37.462;2024-03-07T13:43:58;99433.44;;;4.20;30.80
66385;BME280;53426;55.872;37.462;2024-03-07T13:46:27;99507.44;;;4.53;31.72
66385;BME280;53426;55.872;37.462;2024-03-07T13:49:01;99440.72;;;4.15;31.06
66385;BME280;53426;55.872;37.462;2024-03-07T13:51:42;99490.56;;;4.43;31.84
66385;BME280;53426;55.872;37.462;2024-03-07T13:54:29;99482.69;;;4.29;31.53
66385;BME280;53426;55.872;37.462;2024-03-07T13:57:32;99551.97;;;4.83;31.07
66385;BME280;53426;55.872;37.462;2024-03-07T14:30:54;99535.78;;;4.03;32.36
66385;BME280;53426;55.872;37.462;2024-03-07T14:33:29;99560.63;;;3.96;32.75
66385;BME280;53426;55.872;37.462;2024-03-07T14:36:02;99558.88;;;3.81;32.91
66385;BME280;53426;55.872;37.462;2024-03-07T14:39:40;99546.97;;;3.59;33.08
66385;BME280;53426;55.872;37.462;2024-03-07T14:43:27;99525.19;;;3.43;33.25
66385;BME280;53426;55.872;37.462;2024-03-07T14:46:00;99575.84;;;3.42;33.56
66385;BME280;53426;55.872;37.462;2024-03-07T14:48:29;99434.19;;;2.70;34.36
66385;BME280;53426;55.872;37.462;2024-03-07T14:50:57;99435.91;;;2.53;33.76
66385;BME280;53426;55.872;37.462;2024-03-07T14:53:23;99453.38;;;2.69;34.42
66385;BME280;53426;55.872;37.462;2024-03-07T14:55:49;99429.91;;;2.51;34.45
66385;BME280;53426;55.872;37.462;2024-03-07T14:58:18;99429.22;;;2.32;34.66
66385;BME280;53426;55.872;37.462;2024-03-07T15:01:47;99494.34;;;2.52;35.10
66385;BME280;53426;55.872;37.462;2024-03-07T15:04:14;99554.50;;;2.68;35.89
66385;BME280;53426;55.872;37.462;2024-03-07T15:06:50;99542.75;;;2.60;36.31
66385;BME280;53426;55.872;37.462;2024-03-07T15:09:23;99490.81;;;2.19;36.01
66385;BME280;53426;55.872;37.462;2024-03-07T15:11:49;99515.19;;;2.20;36.60
66385;BME280;53426;55.872;37.462;2024-03-07T15:14:16;99469.41;;;1.78;36.60
66385;BME280;53426;55.872;37.462;2024-03-07T15:16:42;99526.16;;;2.09;36.98
66385;BME280;53426;55.872;37.462;2024-03-07T15:19:09;99542.31;;;2.17;37.49
66385;BME280;53426;55.872;37.462;2024-03-07T15:21:36;99506.13;;;1.92;37.42
66385;BME280;53426;55.872;37.462;2024-03-07T15:24:06;99502.41;;;1.62;38.08
66385;BME280;53426;55.872;37.462;2024-03-07T15:26:32;99441.88;;;1.37;37.94
66385;BME280;53426;55.872;37.462;2024-03-07T15:28:58;99553.50;;;1.85;38.27
66385;BME280;53426;55.872;37.462;2024-03-07T15:31:26;99478.13;;;1.24;38.49
66385;BME280;53426;55.872;37.462;2024-03-07T15:33:53;99439.09;;;1.04;38.75
66385;BME280;53426;55.872;37.462;2024-03-07T15:36:20;99480.06;;;1.02;39.15